EGNT

Newcastle Airport

Newcastle, United Kingdom
METAR EGNT 150050Z 20004KT 170V230 9999 SCT020 17/15 Q1011
Observed Flight Rules
Aug-15 @ 00:50 UTC (14 minutes ago) Visual Flight Rules
Wind Visibility Clouds
200° at 4 knots 10,000+ meters
  • Scattered at 2,000' AGL
Temperatures Readings
Current 17°C / 63°F
Dewpoint 15°C / 59°F
Humidity 88%
Altimeter 29.85" Hg
Pressure 1011 hPa
Elevation 81
METAR EGNT 150050Z 20004KT 170V230 9999 SCT020 17/15 Q1011
Observed Flight Rules
Aug-15 @ 00:50 UTC
(14 minutes ago)
VFR
Wind Visibility
200° at 4 knots 10,000+ meters
Clouds
  • Scattered at 2,000' AGL
Temperature Dewpoint
17°C / 63°F 15°C / 59°F
Humidity Altimeter Pressure
88% 29.85" Hg 1011 hPa